createdAt,value
2023-05-03T00:01:01.476Z,8.10
2023-05-03T00:03:28.445Z,8.10
2023-05-03T00:05:55.217Z,8.10
2023-05-03T00:08:22.164Z,8.10
2023-05-03T00:10:48.843Z,8.10
2023-05-03T00:13:15.708Z,8.10
2023-05-03T00:15:42.354Z,8.20
2023-05-03T00:18:09.066Z,8.20
2023-05-03T00:20:36.305Z,8.20
2023-05-03T00:23:03.146Z,10.30
2023-05-03T00:25:29.788Z,8.30
2023-05-03T00:27:57.536Z,8.30
2023-05-03T00:30:25.115Z,8.20
2023-05-03T00:32:51.832Z,8.20
2023-05-03T00:35:18.838Z,8.20
2023-05-03T00:37:45.419Z,8.20
2023-05-03T00:40:12.236Z,10.60
2023-05-03T00:42:38.885Z,8.20
2023-05-03T00:45:06.895Z,8.30
2023-05-03T00:47:33.992Z,8.20
2023-05-03T00:50:01.065Z,8.20
2023-05-03T00:52:28.185Z,8.20
2023-05-03T00:54:55.294Z,8.30
2023-05-03T00:57:22.987Z,10.90
2023-05-03T00:59:50.035Z,8.20
2023-05-03T01:02:17.000Z,8.10
2023-05-03T01:04:43.737Z,8.10
2023-05-03T01:07:29.517Z,8.00
2023-05-03T01:10:11.490Z,8.00
2023-05-03T01:12:53.354Z,7.90
2023-05-03T01:15:39.060Z,7.80
2023-05-03T01:18:15.776Z,7.80
2023-05-03T01:20:44.274Z,7.80
2023-05-03T01:23:14.692Z,10.40
2023-05-03T01:25:41.804Z,7.80
2023-05-03T01:28:08.605Z,7.70
2023-05-03T01:30:36.304Z,10.50
2023-05-03T01:33:35.374Z,7.70
2023-05-03T01:36:08.643Z,7.60
2023-05-03T01:38:36.661Z,7.60
2023-05-03T01:41:06.880Z,7.50
2023-05-03T01:43:34.178Z,7.50
2023-05-03T01:46:01.041Z,7.50
2023-05-03T01:48:27.899Z,7.50
2023-05-03T01:50:54.912Z,7.50
2023-05-03T01:53:21.617Z,7.40
2023-05-03T01:55:48.295Z,7.40
2023-05-03T01:58:14.900Z,7.40
2023-05-03T02:00:41.585Z,7.30
2023-05-03T02:03:08.374Z,7.30
2023-05-03T02:05:35.171Z,7.30
2023-05-03T02:08:01.809Z,7.20
2023-05-03T02:10:28.907Z,7.20
2023-05-03T02:12:55.542Z,7.10
2023-05-03T02:15:22.183Z,8.50
2023-05-03T02:17:49.661Z,7.10
2023-05-03T02:20:16.558Z,7.10
2023-05-03T02:22:43.226Z,7.00
2023-05-03T02:25:09.931Z,7.00
2023-05-03T02:27:36.528Z,7.00
2023-05-03T02:30:03.908Z,6.90
2023-05-03T02:32:30.876Z,6.90
2023-05-03T02:34:57.562Z,6.90
2023-05-03T02:37:24.160Z,6.90
2023-05-03T02:39:51.122Z,6.80
2023-05-03T02:42:17.770Z,6.80
2023-05-03T02:44:46.432Z,6.80
2023-05-03T02:47:13.173Z,6.80
2023-05-03T02:49:39.745Z,6.80
2023-05-03T02:52:06.380Z,6.80
2023-05-03T02:54:33.250Z,6.80
2023-05-03T02:56:59.794Z,6.80
2023-05-03T02:59:26.562Z,6.80
2023-05-03T03:01:53.477Z,6.70
2023-05-03T03:04:20.165Z,6.60
2023-05-03T03:06:47.019Z,6.60
2023-05-03T03:09:13.752Z,6.50
2023-05-03T03:11:41.206Z,6.50
2023-05-03T03:14:07.791Z,6.40
2023-05-03T03:16:34.405Z,6.40
2023-05-03T03:19:00.995Z,6.30
2023-05-03T03:21:29.044Z,6.30
2023-05-03T03:23:56.619Z,6.20
2023-05-03T03:26:23.387Z,6.10
2023-05-03T03:28:50.264Z,6.00
2023-05-03T03:31:18.287Z,6.00
2023-05-03T03:33:46.528Z,5.90
2023-05-03T03:36:13.386Z,5.80
2023-05-03T03:38:41.252Z,6.20
2023-05-03T03:41:08.001Z,5.70
2023-05-03T03:43:34.631Z,5.60
2023-05-03T03:46:01.209Z,5.60
2023-05-03T03:48:27.838Z,5.60
2023-05-03T03:50:54.519Z,5.60
2023-05-03T03:53:21.170Z,5.60
2023-05-03T03:55:49.166Z,5.60
2023-05-03T03:58:15.903Z,5.50
2023-05-03T04:00:43.066Z,5.50
2023-05-03T04:03:09.793Z,5.50
2023-05-03T04:05:36.750Z,5.40
2023-05-03T04:08:03.421Z,5.50
2023-05-03T04:10:30.156Z,5.50
2023-05-03T04:12:56.850Z,5.60
2023-05-03T04:15:23.597Z,5.70
2023-05-03T04:17:50.354Z,5.70
2023-05-03T04:20:19.415Z,5.70
2023-05-03T04:22:46.336Z,5.70
2023-05-03T04:25:17.299Z,5.80
2023-05-03T04:27:44.723Z,5.90
2023-05-03T04:30:13.022Z,6.00
2023-05-03T04:32:40.837Z,6.00
2023-05-03T04:35:10.653Z,6.10
2023-05-03T04:37:38.297Z,6.10
2023-05-03T04:40:08.685Z,6.20
2023-05-03T04:42:36.288Z,6.30
2023-05-03T04:45:03.919Z,6.30
2023-05-03T04:47:30.999Z,6.40
2023-05-03T04:49:57.711Z,6.40
2023-05-03T04:52:25.242Z,6.50
2023-05-03T04:54:52.043Z,6.50
2023-05-03T04:57:18.668Z,6.60
2023-05-03T04:59:45.352Z,6.60
2023-05-03T05:02:12.043Z,6.70
2023-05-03T05:04:38.759Z,6.70
2023-05-03T05:07:05.890Z,6.80
2023-05-03T05:09:32.674Z,6.80
2023-05-03T05:11:59.357Z,6.90
2023-05-03T05:14:30.006Z,6.90
2023-05-03T05:16:57.149Z,6.90
2023-05-03T05:19:24.051Z,7.00
2023-05-03T05:21:51.638Z,7.00
2023-05-03T05:24:19.057Z,7.10
2023-05-03T05:26:46.366Z,7.20
2023-05-03T05:29:13.169Z,7.30
2023-05-03T05:31:40.226Z,7.30
2023-05-03T05:34:07.045Z,7.30
2023-05-03T05:36:33.902Z,7.30
2023-05-03T05:39:00.585Z,7.30
2023-05-03T05:41:27.607Z,7.30
2023-05-03T05:43:54.323Z,7.40
2023-05-03T05:46:21.747Z,7.40
2023-05-03T05:48:48.789Z,7.50
2023-05-03T05:51:15.715Z,7.60
2023-05-03T05:53:42.464Z,7.60
2023-05-03T05:56:09.182Z,7.60
2023-05-03T05:58:37.665Z,7.70
2023-05-03T06:01:05.471Z,9.90
2023-05-03T06:03:33.028Z,7.80
2023-05-03T06:05:59.661Z,7.90
2023-05-03T06:08:26.367Z,7.80
2023-05-03T06:10:53.707Z,7.90
2023-05-03T06:13:20.358Z,8.10
2023-05-03T06:15:47.076Z,8.10
2023-05-03T06:18:13.834Z,8.30
2023-05-03T06:20:40.837Z,8.30
2023-05-03T06:23:07.918Z,8.40
2023-05-03T06:25:36.236Z,8.40
2023-05-03T06:28:03.063Z,8.50
2023-05-03T06:30:30.378Z,8.40
2023-05-03T06:32:57.084Z,8.40
2023-05-03T06:35:23.813Z,8.40
2023-05-03T06:37:50.813Z,8.50
2023-05-03T06:40:18.237Z,8.50
2023-05-03T06:42:44.835Z,8.50
2023-05-03T06:45:11.639Z,8.60
2023-05-03T06:47:40.353Z,8.30
2023-05-03T06:50:07.407Z,8.80
2023-05-03T06:52:34.380Z,7.90
2023-05-03T06:55:01.399Z,10.30
2023-05-03T06:57:28.955Z,8.80
2023-05-03T06:59:55.720Z,8.80
2023-05-03T07:02:22.971Z,8.80
2023-05-03T07:04:49.920Z,8.90
2023-05-03T07:07:16.889Z,8.80
2023-05-03T07:09:44.161Z,7.40
2023-05-03T07:12:11.421Z,8.90
2023-05-03T07:14:38.894Z,8.90
2023-05-03T07:17:05.766Z,9.00
2023-05-03T07:19:32.704Z,9.10
2023-05-03T07:21:59.528Z,9.20
2023-05-03T07:24:26.400Z,9.30
2023-05-03T07:26:53.470Z,9.00
2023-05-03T07:29:20.394Z,9.30
2023-05-03T07:31:48.258Z,10.80
2023-05-03T07:34:14.983Z,11.40
2023-05-03T07:36:41.914Z,9.60
2023-05-03T07:39:08.683Z,10.50
2023-05-03T07:41:35.490Z,9.50
2023-05-03T07:44:02.266Z,9.60
2023-05-03T07:46:29.230Z,9.80
2023-05-03T07:48:56.083Z,9.80
2023-05-03T07:51:23.098Z,9.80
2023-05-03T07:53:49.812Z,9.90
2023-05-03T07:56:16.562Z,9.90
2023-05-03T07:58:45.053Z,9.80
2023-05-03T08:01:13.627Z,9.90
2023-05-03T08:03:40.739Z,10.00
2023-05-03T08:06:08.026Z,10.10
2023-05-03T08:08:36.850Z,10.80
2023-05-03T08:11:03.863Z,11.80
2023-05-03T08:13:30.728Z,10.50
2023-05-03T08:15:57.717Z,10.80
2023-05-03T08:18:24.718Z,10.80
2023-05-03T08:20:51.521Z,10.80
2023-05-03T08:23:18.566Z,10.90
2023-05-03T08:25:48.160Z,13.50
2023-05-03T08:28:15.145Z,12.70
2023-05-03T08:30:42.055Z,11.20
2023-05-03T08:33:10.205Z,13.40
2023-05-03T08:35:37.050Z,11.20
2023-05-03T08:38:05.221Z,11.10
2023-05-03T08:40:37.139Z,11.30
2023-05-03T08:43:08.307Z,11.10
2023-05-03T08:45:35.366Z,11.20
2023-05-03T08:48:05.094Z,11.20
2023-05-03T08:50:32.922Z,11.20
2023-05-03T08:52:59.795Z,11.30
2023-05-03T08:55:26.513Z,11.40
2023-05-03T08:57:53.152Z,11.60
2023-05-03T09:00:20.923Z,11.60
2023-05-03T09:02:50.289Z,11.70
2023-05-03T09:05:16.954Z,11.80
2023-05-03T09:08:06.318Z,12.00
2023-05-03T09:10:34.336Z,12.10
2023-05-03T09:13:01.953Z,12.20
2023-05-03T09:15:32.206Z,13.80
2023-05-03T09:18:11.728Z,12.30
2023-05-03T09:20:40.036Z,12.40
2023-05-03T09:23:07.507Z,12.50
2023-05-03T09:25:41.358Z,12.60
2023-05-03T09:28:08.617Z,12.60
2023-05-03T09:30:35.328Z,12.90
2023-05-03T09:33:02.216Z,13.00
2023-05-03T09:35:29.244Z,15.60
2023-05-03T09:37:55.988Z,13.00
2023-05-03T09:40:22.767Z,13.10
2023-05-03T09:43:08.596Z,13.10
2023-05-03T09:45:35.994Z,13.30
2023-05-03T09:48:03.984Z,13.50
2023-05-03T09:50:40.217Z,14.70
2023-05-03T09:53:07.683Z,13.70
2023-05-03T09:55:35.676Z,14.00
2023-05-03T09:58:09.039Z,14.00
2023-05-03T10:00:39.684Z,16.80
2023-05-03T10:03:10.816Z,14.30
2023-05-03T10:05:44.039Z,14.50
2023-05-03T10:08:12.463Z,14.70
2023-05-03T10:10:42.300Z,17.10
2023-05-03T10:13:10.288Z,16.50
2023-05-03T10:15:39.900Z,15.00
2023-05-03T10:18:08.179Z,16.70
2023-05-03T10:20:52.666Z,15.50
2023-05-03T10:23:19.424Z,14.90
2023-05-03T10:26:20.740Z,15.40
2023-05-03T10:28:48.720Z,14.90
2023-05-03T10:31:36.364Z,16.60
2023-05-03T10:34:19.455Z,15.80
2023-05-03T10:36:49.666Z,15.30
2023-05-03T10:39:18.556Z,15.50
2023-05-03T10:41:45.802Z,15.80
2023-05-03T10:44:28.551Z,15.80
2023-05-03T10:46:55.451Z,15.90
2023-05-03T10:49:22.936Z,16.50
2023-05-03T10:51:49.798Z,18.60
2023-05-03T10:54:17.663Z,19.00
2023-05-03T10:56:48.449Z,19.20
2023-05-03T10:59:15.085Z,16.40
2023-05-03T11:01:42.914Z,18.50
2023-05-03T11:04:09.646Z,17.80
2023-05-03T11:06:37.685Z,18.00
2023-05-03T11:09:06.778Z,16.10
2023-05-03T11:11:34.918Z,18.70
2023-05-03T11:14:01.811Z,15.60
2023-05-03T11:16:28.732Z,15.60
2023-05-03T11:18:55.537Z,17.80
2023-05-03T11:21:22.887Z,18.60
2023-05-03T11:23:49.466Z,16.30
2023-05-03T11:26:16.214Z,17.30
2023-05-03T11:28:43.590Z,16.30
2023-05-03T11:31:10.794Z,17.40
2023-05-03T11:33:38.040Z,16.90
2023-05-03T11:36:09.606Z,17.10
2023-05-03T11:38:37.903Z,16.70
2023-05-03T11:41:15.036Z,17.00
2023-05-03T11:43:45.433Z,16.30
2023-05-03T11:46:13.596Z,16.30
2023-05-03T11:48:40.407Z,19.70
2023-05-03T11:51:07.866Z,17.20
2023-05-03T11:53:36.744Z,16.20
2023-05-03T11:56:03.445Z,16.40
2023-05-03T11:58:30.499Z,16.50
2023-05-03T12:00:57.412Z,17.60
2023-05-03T12:03:30.194Z,18.50
2023-05-03T12:05:58.913Z,17.10
2023-05-03T12:08:30.841Z,17.10
2023-05-03T12:11:00.067Z,17.20
2023-05-03T12:13:30.830Z,17.30
2023-05-03T12:16:11.584Z,17.80
2023-05-03T12:18:47.572Z,18.00
2023-05-03T12:23:46.035Z,18.20
2023-05-03T12:26:14.295Z,18.00
2023-05-03T12:28:41.377Z,17.20
2023-05-03T12:31:08.464Z,17.50
2023-05-03T12:33:38.609Z,17.50
2023-05-03T12:36:09.204Z,17.60
2023-05-03T12:38:37.741Z,17.30
2023-05-03T12:41:08.592Z,18.30
2023-05-03T12:43:36.115Z,17.40
2023-05-03T12:46:29.874Z,17.80
2023-05-03T12:48:51.967Z,19.60
2023-05-03T12:51:25.731Z,17.50
2023-05-03T12:53:55.107Z,17.60
2023-05-03T12:56:24.823Z,20.50
2023-05-03T12:59:19.917Z,20.30
2023-05-03T13:02:40.803Z,17.40
2023-05-03T13:06:59.234Z,17.70
2023-05-03T13:09:37.959Z,17.30
2023-05-03T13:12:14.524Z,17.40
2023-05-03T13:14:42.443Z,17.80
2023-05-03T13:17:09.103Z,19.20
2023-05-03T13:19:36.764Z,17.40
2023-05-03T13:22:03.418Z,17.60
2023-05-03T13:24:30.002Z,19.30
2023-05-03T13:26:56.904Z,19.40
2023-05-03T13:29:24.898Z,17.90
2023-05-03T13:31:51.592Z,21.30
2023-05-03T13:34:18.213Z,18.30
2023-05-03T13:36:44.864Z,18.60
2023-05-03T13:39:11.473Z,19.30
2023-05-03T13:41:42.229Z,19.30
2023-05-03T13:44:09.994Z,17.80
2023-05-03T13:46:37.310Z,17.70
2023-05-03T13:49:05.518Z,17.60
2023-05-03T13:51:32.391Z,17.80
2023-05-03T13:54:03.032Z,19.40
2023-05-03T13:56:29.963Z,17.70
2023-05-03T13:58:57.316Z,17.70
2023-05-03T14:01:24.943Z,17.70
2023-05-03T14:03:52.379Z,17.60
2023-05-03T14:06:20.094Z,17.60
2023-05-03T14:08:47.608Z,17.60
2023-05-03T14:11:14.975Z,20.20
2023-05-03T14:13:55.619Z,17.60
2023-05-03T14:18:54.133Z,17.50
2023-05-03T14:21:20.856Z,17.40
2023-05-03T14:23:47.900Z,17.50
2023-05-03T14:26:14.667Z,17.40
2023-05-03T14:28:42.029Z,19.20
2023-05-03T14:31:09.308Z,19.40
2023-05-03T14:33:36.674Z,19.00
2023-05-03T14:36:03.603Z,17.60
2023-05-03T14:38:30.277Z,17.60
2023-05-03T14:40:57.101Z,18.20
2023-05-03T14:43:24.093Z,17.40
2023-05-03T14:45:50.988Z,17.30
2023-05-03T14:48:17.739Z,17.40
2023-05-03T14:50:48.176Z,17.50
2023-05-03T14:53:14.924Z,17.50
2023-05-03T14:55:41.571Z,17.50
2023-05-03T14:58:10.231Z,17.60
2023-05-03T15:00:37.696Z,18.60
2023-05-03T15:03:05.225Z,17.70
2023-05-03T15:05:31.969Z,19.80
2023-05-03T15:08:00.258Z,18.80
2023-05-03T15:10:27.067Z,20.40
2023-05-03T15:12:53.914Z,19.10
2023-05-03T15:15:20.687Z,17.50
2023-05-03T15:17:47.270Z,17.50
2023-05-03T15:20:15.395Z,19.00
2023-05-03T15:22:42.136Z,17.50
2023-05-03T15:25:09.007Z,17.40
2023-05-03T15:27:36.289Z,17.40
2023-05-03T15:30:04.375Z,17.50
2023-05-03T15:32:31.220Z,17.50
2023-05-03T15:34:58.105Z,17.50
2023-05-03T15:37:33.344Z,19.50
2023-05-03T15:40:00.085Z,17.70
2023-05-03T15:42:27.393Z,17.60
2023-05-03T15:44:53.994Z,17.60
2023-05-03T15:47:22.523Z,17.60
2023-05-03T15:49:49.695Z,17.60
2023-05-03T15:52:17.564Z,17.50
2023-05-03T15:54:44.207Z,17.40
2023-05-03T15:57:11.251Z,17.50
2023-05-03T15:59:38.020Z,17.50
2023-05-03T16:02:05.176Z,17.50
2023-05-03T16:04:31.933Z,17.50
2023-05-03T16:06:58.781Z,17.50
2023-05-03T16:09:25.606Z,19.90
2023-05-03T16:11:52.282Z,19.10
2023-05-03T16:14:18.892Z,17.60
2023-05-03T16:16:46.135Z,18.40
2023-05-03T16:19:13.860Z,17.70
2023-05-03T16:21:40.401Z,19.20
2023-05-03T16:24:07.936Z,18.90
2023-05-03T16:26:35.755Z,17.70
2023-05-03T16:29:02.878Z,17.60
2023-05-03T16:31:30.593Z,19.40
2023-05-03T16:33:57.521Z,17.60
2023-05-03T16:36:24.329Z,17.60
2023-05-03T16:38:51.069Z,17.70
2023-05-03T16:41:17.862Z,20.50
2023-05-03T16:43:44.520Z,17.70
2023-05-03T16:46:11.415Z,20.70
2023-05-03T16:48:38.347Z,17.60
2023-05-03T16:51:05.033Z,17.60
2023-05-03T16:53:31.806Z,17.60
2023-05-03T16:55:58.780Z,17.50
2023-05-03T16:58:25.449Z,17.50
2023-05-03T17:00:52.273Z,17.50
2023-05-03T17:03:19.050Z,19.10
2023-05-03T17:05:46.102Z,17.40
2023-05-03T17:08:13.721Z,17.40
2023-05-03T17:10:40.470Z,18.60
2023-05-03T17:13:09.221Z,17.80
2023-05-03T17:15:36.745Z,17.30
2023-05-03T17:18:05.002Z,20.00
2023-05-03T17:20:32.929Z,17.30
2023-05-03T17:22:59.651Z,17.30
2023-05-03T17:25:26.639Z,18.80
2023-05-03T17:27:55.774Z,17.80
2023-05-03T17:30:22.523Z,17.20
2023-05-03T17:32:49.498Z,17.10
2023-05-03T17:35:16.663Z,17.40
2023-05-03T17:37:44.609Z,17.60
2023-05-03T17:40:11.562Z,17.10
2023-05-03T17:42:38.501Z,17.00
2023-05-03T17:45:05.449Z,17.00
2023-05-03T17:47:32.280Z,16.90
2023-05-03T17:49:59.173Z,16.80
2023-05-03T17:52:25.836Z,18.10
2023-05-03T17:54:52.581Z,16.80
2023-05-03T17:57:22.538Z,18.20
2023-05-03T17:59:49.233Z,16.70
2023-05-03T18:02:15.970Z,16.60
2023-05-03T18:04:42.743Z,16.60
2023-05-03T18:07:09.381Z,16.80
2023-05-03T18:09:36.043Z,16.90
2023-05-03T18:12:04.099Z,16.50
2023-05-03T18:14:30.673Z,16.20
2023-05-03T18:16:57.344Z,16.20
2023-05-03T18:19:24.412Z,17.20
2023-05-03T18:21:51.671Z,16.00
2023-05-03T18:24:18.537Z,15.90
2023-05-03T18:26:45.254Z,15.80
2023-05-03T18:29:11.909Z,16.20
2023-05-03T18:31:38.803Z,16.50
2023-05-03T18:34:05.894Z,15.90
2023-05-03T18:36:32.717Z,15.50
2023-05-03T18:38:59.343Z,15.60
2023-05-03T18:41:26.191Z,15.50
2023-05-03T18:43:53.096Z,15.50
2023-05-03T18:46:19.834Z,17.10
2023-05-03T18:48:47.785Z,17.40
2023-05-03T18:51:14.702Z,15.80
2023-05-03T18:53:41.515Z,15.60
2023-05-03T18:56:08.629Z,14.70
2023-05-03T18:58:35.445Z,14.70
2023-05-03T19:01:02.377Z,14.60
2023-05-03T19:03:29.697Z,14.50
2023-05-03T19:06:00.209Z,14.50
2023-05-03T19:08:28.237Z,15.10
2023-05-03T19:10:54.878Z,14.40
2023-05-03T19:13:21.680Z,14.30
2023-05-03T19:15:48.348Z,16.50
2023-05-03T19:18:16.660Z,15.00
2023-05-03T19:20:43.826Z,14.10
2023-05-03T19:23:10.447Z,14.70
2023-05-03T19:25:37.951Z,14.10
2023-05-03T19:28:06.902Z,14.00
2023-05-03T19:30:33.963Z,14.60
2023-05-03T19:33:00.924Z,14.70
2023-05-03T19:35:27.609Z,14.00
2023-05-03T19:37:54.179Z,13.90
2023-05-03T19:40:21.858Z,14.10
2023-05-03T19:42:50.444Z,13.80
2023-05-03T19:45:17.138Z,14.00
2023-05-03T19:47:44.532Z,13.70
2023-05-03T19:50:12.814Z,13.70
2023-05-03T19:52:40.172Z,13.80
2023-05-03T19:55:07.862Z,14.80
2023-05-03T19:57:35.266Z,13.50
2023-05-03T20:00:02.609Z,14.50
2023-05-03T20:02:29.409Z,13.70
2023-05-03T20:04:56.158Z,13.20
2023-05-03T20:07:25.120Z,13.70
2023-05-03T20:09:51.881Z,12.80
2023-05-03T20:12:18.578Z,12.60
2023-05-03T20:14:46.137Z,12.50
2023-05-03T20:17:13.282Z,12.30
2023-05-03T20:19:39.920Z,13.60
2023-05-03T20:22:06.782Z,13.60
2023-05-03T20:24:33.471Z,12.00
2023-05-03T20:27:00.117Z,11.90
2023-05-03T20:29:26.933Z,11.80
2023-05-03T20:31:54.086Z,11.80
2023-05-03T20:34:20.797Z,11.70
2023-05-03T20:36:47.607Z,13.60
2023-05-03T20:39:14.669Z,11.60
2023-05-03T20:41:41.327Z,11.60
2023-05-03T20:44:08.280Z,11.50
2023-05-03T20:46:35.733Z,11.40
2023-05-03T20:49:02.443Z,11.30
2023-05-03T20:51:29.246Z,11.10
2023-05-03T20:53:56.120Z,11.10
2023-05-03T20:56:22.780Z,11.00
2023-05-03T20:58:49.401Z,10.80
2023-05-03T21:01:16.415Z,10.80
2023-05-03T21:03:43.285Z,10.60
2023-05-03T21:06:10.068Z,10.60
2023-05-03T21:08:36.806Z,10.50
2023-05-03T21:11:04.212Z,10.40
2023-05-03T21:13:30.899Z,10.30
2023-05-03T21:15:57.602Z,11.50
2023-05-03T21:18:25.027Z,10.20
2023-05-03T21:20:53.110Z,10.10
2023-05-03T21:23:19.770Z,10.10
2023-05-03T21:25:46.537Z,10.00
2023-05-03T21:28:13.370Z,10.00
2023-05-03T21:30:42.428Z,10.00
2023-05-03T21:33:09.101Z,9.90
2023-05-03T21:35:35.856Z,11.40
2023-05-03T21:38:02.491Z,9.80
2023-05-03T21:40:29.139Z,9.80
2023-05-03T21:42:56.087Z,9.70
2023-05-03T21:45:23.592Z,9.70
2023-05-03T21:47:50.339Z,9.70
2023-05-03T21:50:17.165Z,10.80
2023-05-03T21:52:43.967Z,9.60
2023-05-03T21:55:10.631Z,9.60
2023-05-03T21:57:38.161Z,9.60
2023-05-03T22:00:05.768Z,9.60
2023-05-03T22:02:32.782Z,9.60
2023-05-03T22:04:59.662Z,9.50
2023-05-03T22:07:27.211Z,9.50
2023-05-03T22:09:53.882Z,9.50
2023-05-03T22:12:24.127Z,9.40
2023-05-03T22:14:51.425Z,9.40
2023-05-03T22:17:18.516Z,9.40
2023-05-03T22:19:45.246Z,10.00
2023-05-03T22:22:12.153Z,9.30
2023-05-03T22:24:39.011Z,9.20
2023-05-03T22:27:05.876Z,9.20
2023-05-03T22:29:32.554Z,9.20
2023-05-03T22:31:59.378Z,9.10
2023-05-03T22:34:26.106Z,9.10
2023-05-03T22:36:52.862Z,9.00
2023-05-03T22:39:19.417Z,9.00
2023-05-03T22:41:46.330Z,8.90
2023-05-03T22:44:13.173Z,8.80
2023-05-03T22:46:39.884Z,8.80
2023-05-03T22:49:07.475Z,8.70
2023-05-03T22:51:34.206Z,8.60
2023-05-03T22:54:00.977Z,8.60
2023-05-03T22:56:27.694Z,8.50
2023-05-03T22:58:54.530Z,10.20
2023-05-03T23:01:21.274Z,8.50
2023-05-03T23:03:47.986Z,8.50
2023-05-03T23:06:14.984Z,9.60
2023-05-03T23:08:42.026Z,8.50
2023-05-03T23:11:09.283Z,8.50
2023-05-03T23:13:36.176Z,8.40
2023-05-03T23:16:02.858Z,8.40
2023-05-03T23:18:29.516Z,8.40
2023-05-03T23:20:56.288Z,8.30
2023-05-03T23:23:24.004Z,8.20
2023-05-03T23:25:50.597Z,9.60
2023-05-03T23:28:17.284Z,8.20
2023-05-03T23:30:44.824Z,8.10
2023-05-03T23:33:12.220Z,8.90
2023-05-03T23:35:41.102Z,7.90
2023-05-03T23:38:07.800Z,7.90
2023-05-03T23:40:34.533Z,7.80
2023-05-03T23:43:01.421Z,7.80
2023-05-03T23:45:28.175Z,7.80
2023-05-03T23:47:54.878Z,9.30
2023-05-03T23:50:21.635Z,7.70
2023-05-03T23:52:48.272Z,7.80
2023-05-03T23:55:14.919Z,7.60
2023-05-03T23:57:41.577Z,7.60
